createdAt,value
2022-08-17T00:12:41.879Z,24.45
2022-08-17T00:15:10.870Z,24.49
2022-08-17T00:17:38.059Z,24.56
2022-08-17T00:20:05.673Z,24.44
2022-08-17T00:22:36.391Z,24.25
2022-08-17T00:25:15.833Z,24.26
2022-08-17T00:27:43.295Z,24.28
2022-08-17T00:30:11.139Z,24.16
2022-08-17T00:33:12.501Z,24.10
2022-08-17T00:35:27.884Z,24.08
2022-08-17T00:37:55.440Z,24.12
2022-08-17T00:40:24.795Z,24.01
2022-08-17T00:42:53.442Z,23.91
2022-08-17T00:45:20.727Z,23.97
2022-08-17T00:47:48.035Z,23.89
2022-08-17T00:50:16.057Z,23.70
2022-08-17T00:52:50.319Z,23.70
2022-08-17T00:55:18.336Z,23.58
2022-08-17T00:57:46.951Z,23.59
2022-08-17T01:00:34.524Z,23.61
2022-08-17T01:03:07.693Z,23.65
2022-08-17T01:05:38.321Z,23.17
2022-08-17T01:08:11.290Z,23.45
2022-08-17T01:10:58.625Z,23.30
2022-08-17T01:13:42.800Z,23.64
2022-08-17T01:16:17.406Z,23.52
2022-08-17T01:18:46.096Z,23.64
2022-08-17T01:21:20.475Z,23.73
2022-08-17T01:23:47.910Z,23.88
2022-08-17T01:26:15.110Z,23.77
2022-08-17T01:28:55.058Z,23.56
2022-08-17T01:31:24.626Z,23.49
2022-08-17T01:33:51.790Z,23.12
2022-08-17T01:36:18.995Z,23.13
2022-08-17T01:38:46.447Z,23.56
2022-08-17T01:41:14.190Z,23.13
2022-08-17T01:43:46.006Z,22.98
2022-08-17T01:46:18.714Z,23.24
2022-08-17T01:48:47.584Z,23.45
2022-08-17T01:51:15.743Z,23.22
2022-08-17T01:53:45.525Z,23.38
2022-08-17T01:56:13.463Z,23.39
2022-08-17T01:58:41.283Z,23.40
2022-08-17T02:01:09.901Z,23.39
2022-08-17T02:03:37.796Z,23.44
2022-08-17T02:06:05.937Z,23.38
2022-08-17T02:09:02.835Z,23.21
2022-08-17T02:11:32.298Z,22.88
2022-08-17T02:14:03.262Z,23.23
2022-08-17T02:16:37.601Z,23.27
2022-08-17T02:19:12.987Z,23.25
2022-08-17T02:21:40.574Z,23.27
2022-08-17T02:24:08.820Z,23.24
2022-08-17T02:26:36.011Z,22.89
2022-08-17T02:29:04.252Z,22.84
2022-08-17T02:31:31.776Z,22.57
2022-08-17T02:34:03.972Z,22.67
2022-08-17T02:36:35.735Z,22.90
2022-08-17T02:39:04.387Z,23.06
2022-08-17T02:41:31.567Z,23.07
2022-08-17T02:43:59.012Z,22.93
2022-08-17T02:46:26.200Z,22.53
2022-08-17T02:48:53.398Z,22.40
2022-08-17T02:51:20.852Z,22.49
2022-08-17T02:53:48.046Z,22.71
2022-08-17T02:56:15.214Z,22.41
2022-08-17T02:58:42.660Z,22.44
2022-08-17T03:01:10.302Z,22.71
2022-08-17T03:03:37.642Z,22.79
2022-08-17T03:06:05.266Z,22.71
2022-08-17T03:08:32.438Z,22.84
2022-08-17T03:10:59.770Z,22.82
2022-08-17T03:13:27.589Z,22.68
2022-08-17T03:15:54.773Z,22.71
2022-08-17T03:18:25.637Z,22.58
2022-08-17T03:20:54.811Z,22.58
2022-08-17T03:23:23.974Z,22.26
2022-08-17T03:25:52.847Z,22.41
2022-08-17T03:28:21.378Z,22.38
2022-08-17T03:30:48.847Z,22.34
2022-08-17T03:33:17.003Z,22.24
2022-08-17T03:35:44.499Z,22.33
2022-08-17T03:38:12.121Z,22.43
2022-08-17T03:40:59.085Z,22.39
2022-08-17T03:43:28.055Z,22.41
2022-08-17T03:46:34.476Z,22.45
2022-08-17T03:49:19.627Z,22.48
2022-08-17T03:52:05.393Z,22.41
2022-08-17T03:54:51.544Z,22.28
2022-08-17T03:57:19.355Z,22.21
2022-08-17T03:59:47.655Z,21.88
2022-08-17T04:02:28.948Z,22.20
2022-08-17T04:04:56.498Z,22.35
2022-08-17T04:07:25.214Z,22.38
2022-08-17T04:09:52.356Z,22.56
2022-08-17T04:12:20.702Z,22.61
2022-08-17T04:14:53.562Z,22.71
2022-08-17T04:17:22.523Z,22.61
2022-08-17T04:19:49.674Z,22.77
2022-08-17T04:22:32.343Z,22.87
2022-08-17T04:25:10.045Z,23.00
2022-08-17T04:27:37.210Z,22.99
2022-08-17T04:30:06.919Z,23.30
2022-08-17T04:33:04.504Z,23.63
2022-08-17T04:35:44.168Z,23.84
2022-08-17T04:38:12.658Z,24.14
2022-08-17T04:40:58.654Z,24.20
2022-08-17T04:43:26.386Z,24.58
2022-08-17T04:45:56.856Z,24.81
2022-08-17T04:48:29.955Z,25.03
2022-08-17T04:51:04.683Z,25.12
2022-08-17T04:53:31.895Z,24.92
2022-08-17T04:55:59.214Z,24.85
2022-08-17T04:58:26.675Z,25.24
2022-08-17T05:00:53.864Z,25.38
2022-08-17T05:03:21.057Z,25.30
2022-08-17T05:05:49.929Z,25.17
2022-08-17T05:08:18.632Z,25.57
2022-08-17T05:10:45.954Z,25.67
2022-08-17T05:13:18.558Z,25.85
2022-08-17T05:15:47.582Z,26.36
2022-08-17T05:18:15.815Z,27.12
2022-08-17T05:20:42.989Z,27.62
2022-08-17T05:23:11.549Z,27.64
2022-08-17T05:25:40.597Z,27.76
2022-08-17T05:28:08.734Z,27.93
2022-08-17T05:30:38.069Z,27.75
2022-08-17T05:33:06.862Z,27.31
2022-08-17T05:35:35.343Z,27.39
2022-08-17T05:38:02.511Z,27.69
2022-08-17T05:40:32.934Z,27.75
2022-08-17T05:43:12.470Z,27.31
2022-08-17T05:45:56.068Z,27.76
2022-08-17T05:48:39.413Z,27.94
2022-08-17T05:51:10.447Z,27.95
2022-08-17T05:53:40.179Z,28.49
2022-08-17T05:56:22.707Z,28.48
2022-08-17T05:59:11.410Z,28.90
2022-08-17T06:01:53.896Z,28.91
2022-08-17T06:04:26.275Z,28.74
2022-08-17T06:06:53.442Z,28.71
2022-08-17T06:09:33.005Z,28.79
2022-08-17T06:12:33.428Z,29.12
2022-08-17T06:15:16.476Z,29.80
2022-08-17T06:17:43.641Z,29.81
2022-08-17T06:20:12.303Z,29.99
2022-08-17T06:22:44.529Z,29.97
2022-08-17T06:25:19.432Z,30.17
2022-08-17T06:27:53.673Z,30.74
2022-08-17T06:30:22.341Z,31.20
2022-08-17T06:32:50.120Z,31.44
2022-08-17T06:35:32.095Z,32.02
2022-08-17T06:38:04.677Z,32.41
2022-08-17T06:40:36.869Z,32.79
2022-08-17T06:43:17.449Z,32.86
2022-08-17T06:45:54.238Z,32.80
2022-08-17T06:48:25.622Z,32.21
2022-08-17T06:51:12.194Z,31.77
2022-08-17T06:53:44.502Z,31.40
2022-08-17T06:56:13.689Z,31.50
2022-08-17T06:58:42.068Z,30.89
2022-08-17T07:01:14.926Z,30.62
2022-08-17T07:04:18.272Z,30.79
2022-08-17T07:06:52.502Z,31.17
2022-08-17T07:09:23.436Z,30.86
2022-08-17T07:11:59.302Z,30.70
2022-08-17T07:14:53.006Z,29.35
2022-08-17T07:17:21.126Z,30.12
2022-08-17T07:20:12.917Z,29.87
2022-08-17T07:22:50.312Z,30.16
2022-08-17T07:25:27.536Z,30.23
2022-08-17T07:27:56.337Z,30.91
2022-08-17T07:30:24.965Z,31.22
2022-08-17T07:32:53.751Z,31.58
2022-08-17T07:35:23.108Z,32.24
2022-08-17T07:38:28.454Z,32.47
2022-08-17T07:41:05.393Z,31.72
2022-08-17T07:43:39.028Z,32.28
2022-08-17T07:46:31.121Z,32.52
2022-08-17T07:49:16.113Z,32.86
2022-08-17T07:51:43.272Z,32.74
2022-08-17T07:54:22.585Z,33.24
2022-08-17T07:56:49.916Z,33.62
2022-08-17T07:59:24.584Z,33.65
2022-08-17T08:01:56.774Z,33.31
2022-08-17T08:04:59.151Z,33.44
2022-08-17T08:07:25.289Z,32.53
2022-08-17T08:09:58.827Z,33.04
2022-08-17T08:12:33.801Z,33.37
2022-08-17T08:15:01.801Z,33.57
2022-08-17T08:17:35.712Z,33.85
2022-08-17T08:20:52.699Z,33.61
2022-08-17T08:23:08.080Z,33.26
2022-08-17T08:25:53.629Z,33.48
2022-08-17T08:28:39.071Z,33.63
2022-08-17T08:31:21.856Z,34.10
2022-08-17T08:33:49.155Z,32.93
2022-08-17T08:36:56.979Z,33.53
2022-08-17T08:39:08.924Z,33.44
2022-08-17T08:41:38.972Z,33.59
2022-08-17T08:44:18.625Z,33.34
2022-08-17T08:47:09.136Z,33.83
2022-08-17T08:52:30.960Z,33.93
2022-08-17T08:55:00.918Z,34.29
2022-08-17T08:57:34.279Z,34.30
2022-08-17T09:00:06.459Z,34.09
2022-08-17T09:02:34.890Z,34.24
2022-08-17T09:05:21.791Z,33.27
2022-08-17T09:07:57.386Z,32.83
2022-08-17T09:10:31.279Z,33.51
2022-08-17T09:13:15.697Z,34.14
2022-08-17T09:15:45.613Z,34.16
2022-08-17T09:19:00.743Z,33.69
2022-08-17T09:21:04.195Z,34.08
2022-08-17T09:23:42.540Z,33.41
2022-08-17T09:26:12.359Z,33.99
2022-08-17T09:28:40.346Z,34.30
2022-08-17T09:31:11.886Z,34.39
2022-08-17T09:33:43.707Z,34.09
2022-08-17T09:36:25.645Z,34.65
2022-08-17T09:39:03.830Z,34.91
2022-08-17T09:41:37.847Z,34.57
2022-08-17T09:44:23.593Z,35.03
2022-08-17T09:46:52.792Z,35.37
2022-08-17T09:49:26.362Z,34.81
2022-08-17T09:52:04.040Z,35.16
2022-08-17T09:54:39.119Z,35.35
2022-08-17T09:57:28.530Z,35.40
2022-08-17T10:00:15.730Z,35.31
2022-08-17T10:03:05.498Z,35.70
2022-08-17T10:05:51.329Z,35.36
2022-08-17T10:08:44.674Z,35.51
2022-08-17T10:11:50.462Z,35.48
2022-08-17T10:14:36.382Z,35.42
2022-08-17T10:17:05.615Z,35.49
2022-08-17T10:19:32.984Z,35.82
2022-08-17T10:22:34.693Z,35.70
2022-08-17T10:25:24.825Z,35.99
2022-08-17T10:28:01.665Z,36.07
2022-08-17T10:30:29.996Z,36.11
2022-08-17T10:32:57.194Z,36.33
2022-08-17T10:35:36.619Z,36.48
2022-08-17T10:38:24.676Z,35.00
2022-08-17T10:40:57.454Z,35.39
2022-08-17T10:43:34.328Z,35.66
2022-08-17T10:46:26.475Z,35.86
2022-08-17T10:49:11.086Z,35.88
2022-08-17T10:51:38.962Z,35.77
2022-08-17T10:54:06.753Z,35.92
2022-08-17T10:56:51.018Z,36.23
2022-08-17T10:59:47.156Z,34.22
2022-08-17T11:02:14.272Z,35.22
2022-08-17T11:05:06.231Z,35.61
2022-08-17T11:07:39.696Z,35.65
2022-08-17T11:10:23.697Z,35.62
2022-08-17T11:12:54.326Z,35.96
2022-08-17T11:15:33.928Z,35.39
2022-08-17T11:18:01.541Z,35.08
2022-08-17T11:20:38.720Z,35.04
2022-08-17T11:23:20.923Z,35.07
2022-08-17T11:25:52.394Z,34.78
2022-08-17T11:28:23.071Z,34.54
2022-08-17T11:30:54.634Z,34.11
2022-08-17T11:33:38.185Z,34.57
2022-08-17T11:36:06.414Z,34.35
2022-08-17T11:38:48.638Z,34.82
2022-08-17T11:41:34.833Z,35.23
2022-08-17T11:44:07.878Z,34.10
2022-08-17T11:46:56.926Z,34.99
2022-08-17T11:50:01.671Z,35.38
2022-08-17T11:52:35.505Z,35.56
2022-08-17T11:55:24.124Z,35.03
2022-08-17T11:57:54.803Z,34.84
2022-08-17T12:00:40.057Z,34.55
2022-08-17T12:03:26.598Z,34.76
2022-08-17T12:06:17.653Z,34.64
2022-08-17T12:08:51.569Z,34.98
2022-08-17T12:11:58.650Z,34.97
2022-08-17T12:14:51.696Z,34.50
2022-08-17T12:17:39.421Z,34.78
2022-08-17T12:20:29.348Z,34.94
2022-08-17T12:23:14.918Z,34.41
2022-08-17T12:25:43.685Z,35.17
2022-08-17T12:28:22.859Z,35.08
2022-08-17T12:30:52.161Z,34.69
2022-08-17T12:33:25.341Z,34.18
2022-08-17T12:36:06.177Z,35.55
2022-08-17T12:38:34.679Z,36.22
2022-08-17T12:41:21.802Z,36.47
2022-08-17T12:44:03.254Z,36.49
2022-08-17T12:46:40.879Z,36.88
2022-08-17T12:49:25.189Z,36.63
2022-08-17T12:51:54.164Z,36.41
2022-08-17T12:54:35.136Z,36.68
2022-08-17T12:57:05.395Z,36.28
2022-08-17T12:59:35.391Z,36.67
2022-08-17T13:02:02.920Z,36.94
2022-08-17T13:04:30.150Z,37.23
2022-08-17T13:07:00.321Z,37.31
2022-08-17T13:09:35.554Z,37.38
2022-08-17T13:12:05.106Z,37.39
2022-08-17T13:14:33.479Z,36.68
2022-08-17T13:17:01.792Z,36.34
2022-08-17T13:19:40.663Z,36.23
2022-08-17T13:22:10.296Z,36.26
2022-08-17T13:24:38.167Z,36.89
2022-08-17T13:27:10.247Z,36.91
2022-08-17T13:29:51.307Z,37.06
2022-08-17T13:32:24.026Z,37.45
2022-08-17T13:35:14.085Z,37.52
2022-08-17T13:37:55.799Z,37.67
2022-08-17T13:40:23.146Z,37.51
2022-08-17T13:42:54.387Z,37.63
2022-08-17T13:45:39.307Z,37.87
2022-08-17T13:48:07.887Z,37.73
2022-08-17T13:50:39.015Z,37.72
2022-08-17T13:53:20.094Z,38.05
2022-08-17T13:55:48.417Z,38.10
2022-08-17T13:58:19.724Z,37.11
2022-08-17T14:00:46.884Z,36.95
2022-08-17T14:03:15.316Z,35.69
2022-08-17T14:05:42.568Z,36.40
2022-08-17T14:08:10.929Z,36.79
2022-08-17T14:10:38.363Z,36.94
2022-08-17T14:13:06.010Z,36.33
2022-08-17T14:15:54.778Z,35.91
2022-08-17T14:18:55.426Z,34.61
2022-08-17T14:21:09.210Z,36.02
2022-08-17T14:23:36.940Z,35.88
2022-08-17T14:26:04.659Z,35.90
2022-08-17T14:28:32.087Z,36.37
2022-08-17T14:31:00.767Z,36.07
2022-08-17T14:33:28.303Z,35.76
2022-08-17T14:35:57.526Z,35.59
2022-08-17T14:38:24.993Z,35.58
2022-08-17T14:40:52.179Z,35.75
2022-08-17T14:43:21.038Z,36.22
2022-08-17T14:45:48.465Z,36.42
2022-08-17T14:48:15.931Z,36.88
2022-08-17T14:50:43.242Z,37.03
2022-08-17T14:53:11.389Z,36.52
2022-08-17T14:55:40.485Z,36.89
2022-08-17T14:58:08.799Z,36.98
2022-08-17T15:00:36.292Z,36.57
2022-08-17T15:03:03.522Z,36.30
2022-08-17T15:05:32.043Z,35.73
2022-08-17T15:08:00.989Z,36.22
2022-08-17T15:10:29.326Z,36.54
2022-08-17T15:12:56.722Z,36.58
2022-08-17T15:15:24.225Z,36.34
2022-08-17T15:17:51.701Z,35.99
2022-08-17T15:20:20.804Z,36.18
2022-08-17T15:22:55.180Z,35.58
2022-08-17T15:25:23.014Z,36.15
2022-08-17T15:27:50.521Z,36.23
2022-08-17T15:30:17.983Z,36.07
2022-08-17T15:32:50.954Z,36.36
2022-08-17T15:35:27.466Z,35.82
2022-08-17T15:38:03.544Z,36.46
2022-08-17T15:40:36.965Z,35.80
2022-08-17T15:43:08.045Z,35.83
2022-08-17T15:45:35.503Z,35.58
2022-08-17T15:48:02.725Z,35.55
2022-08-17T15:50:29.916Z,35.81
2022-08-17T15:52:58.251Z,35.48
2022-08-17T15:55:26.105Z,34.90
2022-08-17T15:57:53.436Z,35.37
2022-08-17T16:00:23.585Z,35.07
2022-08-17T16:03:16.068Z,35.26
2022-08-17T16:05:38.274Z,35.89
2022-08-17T16:08:08.248Z,35.99
2022-08-17T16:10:36.106Z,36.02
2022-08-17T16:13:03.809Z,36.29
2022-08-17T16:15:31.728Z,36.32
2022-08-17T16:17:59.243Z,36.10
2022-08-17T16:20:26.397Z,35.52
2022-08-17T16:22:54.512Z,35.80
2022-08-17T16:25:23.690Z,36.00
2022-08-17T16:28:11.233Z,35.82
2022-08-17T16:30:38.590Z,35.31
2022-08-17T16:33:05.866Z,35.12
2022-08-17T16:35:33.345Z,35.65
2022-08-17T16:38:00.583Z,35.63
2022-08-17T16:40:28.617Z,35.82
2022-08-17T16:42:57.748Z,35.65
2022-08-17T16:45:26.905Z,35.08
2022-08-17T16:47:54.841Z,35.17
2022-08-17T16:50:23.106Z,35.33
2022-08-17T16:52:50.633Z,35.62
2022-08-17T16:55:18.778Z,35.48
2022-08-17T16:57:50.000Z,35.37
2022-08-17T17:00:19.218Z,35.31
2022-08-17T17:02:47.531Z,35.49
2022-08-17T17:05:41.328Z,35.21
2022-08-17T17:08:09.038Z,35.20
2022-08-17T17:10:40.781Z,34.89
2022-08-17T17:13:09.072Z,35.20
2022-08-17T17:15:46.395Z,34.56
2022-08-17T17:18:15.286Z,34.83
2022-08-17T17:20:45.869Z,34.79
2022-08-17T17:23:21.144Z,34.93
2022-08-17T17:25:52.289Z,34.85
2022-08-17T17:28:31.780Z,34.96
2022-08-17T17:31:16.921Z,34.81
2022-08-17T17:33:52.610Z,34.57
2022-08-17T17:36:21.811Z,34.47
2022-08-17T17:38:50.107Z,34.38
2022-08-17T17:41:25.855Z,34.28
2022-08-17T17:43:56.635Z,33.95
2022-08-17T17:46:30.754Z,33.76
2022-08-17T17:48:58.276Z,33.73
2022-08-17T17:52:08.873Z,33.70
2022-08-17T17:54:25.144Z,33.37
2022-08-17T17:57:15.674Z,33.42
2022-08-17T17:59:58.377Z,33.24
2022-08-17T18:02:53.102Z,33.03
2022-08-17T18:05:39.188Z,32.83
2022-08-17T18:08:32.388Z,32.92
2022-08-17T18:11:07.457Z,32.79
2022-08-17T18:13:50.158Z,32.71
2022-08-17T18:16:19.347Z,32.45
2022-08-17T18:18:46.952Z,32.31
2022-08-17T18:21:19.426Z,32.26
2022-08-17T18:23:57.395Z,32.29
2022-08-17T18:26:40.224Z,32.13
2022-08-17T18:29:24.492Z,31.66
2022-08-17T18:32:10.390Z,31.51
2022-08-17T18:34:47.195Z,31.58
2022-08-17T18:37:27.765Z,31.45
2022-08-17T18:39:55.292Z,31.36
2022-08-17T18:42:24.426Z,31.35
2022-08-17T18:44:54.949Z,31.19
2022-08-17T18:47:26.816Z,30.41
2022-08-17T18:49:57.645Z,30.35
2022-08-17T18:52:27.863Z,30.55
2022-08-17T18:55:14.384Z,30.70
2022-08-17T18:57:42.567Z,30.50
2022-08-17T19:00:11.080Z,30.52
2022-08-17T19:02:48.728Z,30.35
2022-08-17T19:05:31.334Z,30.16
2022-08-17T19:08:24.800Z,30.46
2022-08-17T19:11:02.722Z,30.39
2022-08-17T19:13:45.972Z,30.21
2022-08-17T19:16:17.712Z,29.71
2022-08-17T19:18:54.163Z,29.91
2022-08-17T19:21:23.223Z,29.54
2022-08-17T19:24:13.642Z,29.72
2022-08-17T19:26:53.539Z,29.35
2022-08-17T19:29:22.985Z,29.33
2022-08-17T19:31:50.453Z,29.59
2022-08-17T19:34:29.944Z,29.67
2022-08-17T19:37:21.635Z,29.61
2022-08-17T19:39:48.833Z,29.53
2022-08-17T19:42:16.324Z,29.37
2022-08-17T19:45:09.974Z,29.08
2022-08-17T19:47:54.174Z,28.91
2022-08-17T19:50:44.082Z,28.61
2022-08-17T19:53:14.913Z,28.88
2022-08-17T19:56:01.225Z,28.83
2022-08-17T19:58:34.454Z,28.92
2022-08-17T20:01:01.713Z,28.85
2022-08-17T20:03:35.238Z,28.77
2022-08-17T20:06:18.325Z,28.71
2022-08-17T20:08:49.520Z,28.36
2022-08-17T20:11:41.597Z,28.50
2022-08-17T20:14:14.300Z,28.34
2022-08-17T20:16:41.767Z,28.44
2022-08-17T20:19:17.402Z,27.92
2022-08-17T20:21:46.420Z,28.16
2022-08-17T20:24:13.775Z,27.79
2022-08-17T20:26:40.859Z,28.04
2022-08-17T20:29:19.151Z,28.01
2022-08-17T20:32:07.456Z,27.95
2022-08-17T20:34:37.765Z,27.94
2022-08-17T20:37:14.593Z,27.82
2022-08-17T20:40:02.316Z,27.88
2022-08-17T20:42:30.573Z,27.88
2022-08-17T20:44:59.292Z,27.78
2022-08-17T20:47:34.248Z,27.77
2022-08-17T20:50:06.929Z,27.66
2022-08-17T20:52:41.249Z,27.59
2022-08-17T20:55:09.539Z,27.26
2022-08-17T20:57:36.697Z,27.21
2022-08-17T21:00:14.260Z,27.20
2022-08-17T21:02:50.963Z,27.22
2022-08-17T21:05:37.022Z,27.31
2022-08-17T21:08:17.267Z,27.32
2022-08-17T21:10:46.427Z,27.35
2022-08-17T21:13:15.292Z,27.30
2022-08-17T21:15:57.496Z,27.27
2022-08-17T21:18:30.037Z,26.75
2022-08-17T21:20:57.147Z,26.89
2022-08-17T21:23:33.698Z,26.97
2022-08-17T21:26:06.680Z,26.96
2022-08-17T21:29:00.670Z,26.98
2022-08-17T21:31:30.357Z,26.95
2022-08-17T21:34:16.984Z,26.96
2022-08-17T21:36:44.492Z,26.72
2022-08-17T21:39:13.594Z,26.66
2022-08-17T21:41:46.053Z,26.49
2022-08-17T21:44:21.555Z,26.64
2022-08-17T21:46:50.217Z,26.65
2022-08-17T21:49:19.771Z,26.55
2022-08-17T21:51:49.894Z,26.50
2022-08-17T21:54:28.387Z,26.48
2022-08-17T21:56:55.594Z,26.29
2022-08-17T21:59:27.442Z,26.38
2022-08-17T22:01:56.020Z,26.37
2022-08-17T22:04:28.898Z,26.35
2022-08-17T22:06:57.202Z,26.39
2022-08-17T22:09:26.553Z,26.14
2022-08-17T22:11:55.214Z,25.93
2022-08-17T22:14:27.004Z,26.09
2022-08-17T22:17:25.101Z,26.15
2022-08-17T22:19:56.879Z,26.08
2022-08-17T22:22:32.450Z,25.98
2022-08-17T22:25:01.442Z,26.27
2022-08-17T22:27:48.576Z,26.06
2022-08-17T22:30:22.181Z,26.07
2022-08-17T22:32:49.882Z,26.15
2022-08-17T22:35:29.276Z,25.67
2022-08-17T22:37:56.918Z,25.66
2022-08-17T22:40:31.326Z,25.74
2022-08-17T22:42:59.066Z,25.91
2022-08-17T22:45:26.341Z,25.86
2022-08-17T22:47:54.335Z,25.80
2022-08-17T22:50:23.112Z,26.14
2022-08-17T22:53:16.665Z,26.00
2022-08-17T22:56:13.166Z,25.87
2022-08-17T22:59:13.419Z,25.88
2022-08-17T23:01:41.138Z,25.89
2022-08-17T23:04:10.019Z,25.45
2022-08-17T23:06:38.015Z,25.42
2022-08-17T23:09:06.081Z,25.44
2022-08-17T23:11:48.754Z,25.32
2022-08-17T23:14:19.180Z,25.52
2022-08-17T23:16:46.908Z,25.27
2022-08-17T23:19:15.448Z,25.02
2022-08-17T23:21:44.851Z,24.87
2022-08-17T23:24:14.568Z,25.09
2022-08-17T23:26:41.742Z,24.82
2022-08-17T23:29:09.456Z,24.07
2022-08-17T23:31:36.931Z,22.72
2022-08-17T23:34:04.653Z,23.91
2022-08-17T23:36:33.315Z,24.47
2022-08-17T23:39:00.482Z,24.03
2022-08-17T23:41:28.170Z,24.33
2022-08-17T23:43:55.547Z,24.63
2022-08-17T23:46:24.547Z,24.35
2022-08-17T23:48:54.798Z,24.40
2022-08-17T23:51:25.737Z,24.66
2022-08-17T23:53:54.398Z,24.79
2022-08-17T23:56:26.094Z,24.51
2022-08-17T23:58:54.804Z,24.37
